Time;durP1;ratioP1;P1;durP2;ratioP2;P2;SDS_P1;SDS_P2;PMS_P1;PMS_P2;Temp;Humidity;BMP_temperature;BMP_pressure;BME280_temperature;BME280_humidity;BME280_pressure;Samples;Min_cycle;Max_cycle;Signal;HPM_P1;HPM_P2
2022/11/02 00:01:19;;;;;;;11.83;4.00;;;15.80;84.30;;;;;;4981495;28;20214;-91
2022/11/02 00:03:49;;;;;;;9.27;3.03;;;15.80;83.30;;;;;;4979624;28;20237;-93
2022/11/02 00:06:18;;;;;;;9.80;2.80;;;15.70;83.10;;;;;;4978581;28;20216;-91
2022/11/02 00:08:51;;;;;;;12.90;3.60;;;15.70;82.70;;;;;;4981117;28;20236;-92
2022/11/02 00:11:19;;;;;;;9.13;3.03;;;15.70;82.30;;;;;;4978585;28;20246;-91
2022/11/02 00:13:53;;;;;;;12.03;3.03;;;15.70;81.90;;;;;;4981506;28;20216;-91
2022/11/02 00:16:25;;;;;;;9.00;2.53;;;15.70;81.60;;;;;;4982704;28;20265;-91
2022/11/02 00:18:58;;;;;;;12.77;3.30;;;15.70;81.60;;;;;;4982321;28;20203;-92
2022/11/02 00:21:28;;;;;;;15.20;4.37;;;15.70;81.50;;;;;;4981808;28;20191;-93
2022/11/02 00:24:01;;;;;;;9.80;3.00;;;15.70;80.80;;;;;;4979796;28;20237;-91
2022/11/02 00:26:30;;;;;;;13.33;3.90;;;15.60;80.40;;;;;;4978415;28;20219;-92
2022/11/02 00:29:00;;;;;;;14.13;3.50;;;15.60;79.60;;;;;;4978951;28;20234;-93
2022/11/02 00:31:27;;;;;;;10.77;3.37;;;15.50;79.30;;;;;;4971390;28;20740;-92
2022/11/02 00:33:55;;;;;;;6.77;2.40;;;15.60;79.10;;;;;;4976993;28;20207;-91
2022/11/02 00:36:25;;;;;;;11.90;2.83;;;15.50;78.80;;;;;;4978788;28;20534;-92
2022/11/02 00:38:53;;;;;;;11.00;2.33;;;15.50;78.90;;;;;;4979175;28;20212;-93
2022/11/02 00:41:22;;;;;;;12.20;3.27;;;15.40;78.90;;;;;;4977706;28;20204;-93
2022/11/02 00:43:52;;;;;;;11.03;2.97;;;15.40;79.00;;;;;;4977768;28;20207;-93
2022/11/02 00:46:23;;;;;;;13.47;4.03;;;15.40;79.80;;;;;;4977440;28;20223;-91
2022/11/02 00:48:51;;;;;;;10.13;2.90;;;15.40;80.20;;;;;;4987285;28;20253;-93
2022/11/02 00:51:19;;;;;;;12.13;3.40;;;15.30;80.10;;;;;;4988553;28;20221;-91
2022/11/02 00:53:51;;;;;;;11.40;2.50;;;15.30;80.80;;;;;;4980419;28;20209;-91
2022/11/02 00:56:21;;;;;;;5.63;2.30;;;15.20;81.00;;;;;;4982879;28;20258;-92
2022/11/02 00:58:53;;;;;;;13.37;3.80;;;15.20;81.30;;;;;;4983269;28;20200;-92
2022/11/02 01:01:23;;;;;;;12.03;3.63;;;15.20;81.20;;;;;;4969657;28;20266;-93
2022/11/02 01:04:00;;;;;;;8.97;2.97;;;15.20;81.20;;;;;;4982944;28;20226;-90
2022/11/02 01:06:29;;;;;;;15.73;4.37;;;15.10;81.30;;;;;;4980904;28;20214;-89
2022/11/02 01:09:01;;;;;;;9.33;3.17;;;15.10;81.30;;;;;;4970443;28;20273;-93
2022/11/02 01:11:35;;;;;;;12.63;3.80;;;15.10;81.40;;;;;;4982581;28;20273;-92
2022/11/02 01:14:09;;;;;;;10.27;3.17;;;15.10;82.10;;;;;;4973603;28;20231;-95
2022/11/02 01:16:43;;;;;;;14.20;3.47;;;15.10;80.50;;;;;;4981613;28;20206;-92
2022/11/02 01:19:13;;;;;;;13.13;3.57;;;15.00;80.80;;;;;;4970574;28;20206;-91
2022/11/02 01:21:46;;;;;;;11.63;3.23;;;15.10;80.50;;;;;;4981448;28;20183;-92
2022/11/02 01:24:16;;;;;;;14.27;4.07;;;15.00;80.70;;;;;;4975991;28;20199;-91
2022/11/02 01:26:44;;;;;;;13.00;3.50;;;15.00;80.50;;;;;;4975113;28;20232;-93
2022/11/02 01:29:16;;;;;;;9.77;2.87;;;15.00;80.70;;;;;;4981654;28;20264;-92
2022/11/02 01:31:52;;;;;;;16.23;4.40;;;15.00;80.60;;;;;;4982528;28;20259;-91
2022/11/02 01:34:19;;;;;;;16.90;3.77;;;14.90;81.40;;;;;;4980315;28;20273;-92
2022/11/02 01:36:54;;;;;;;17.20;3.90;;;14.90;80.50;;;;;;4982627;28;20656;-92
2022/11/02 01:39:23;;;;;;;19.00;4.30;;;15.00;80.50;;;;;;4980034;28;20276;-93
2022/11/02 01:41:52;;;;;;;13.33;3.50;;;14.90;80.10;;;;;;4980241;28;20206;-93
2022/11/02 01:44:31;;;;;;;13.40;3.67;;;14.90;80.10;;;;;;4992611;28;20201;-92
2022/11/02 01:47:04;;;;;;;8.73;3.17;;;14.90;80.60;;;;;;4986431;28;20235;-92
2022/11/02 01:49:37;;;;;;;18.53;4.70;;;14.90;80.70;;;;;;4981624;28;20226;-91
2022/11/02 01:52:12;;;;;;;14.87;3.13;;;14.90;80.50;;;;;;4979689;28;20233;-92
2022/11/02 01:54:46;;;;;;;16.87;4.40;;;14.90;80.90;;;;;;4980338;28;20206;-94
2022/11/02 01:57:20;;;;;;;12.83;2.90;;;14.90;80.90;;;;;;4976205;28;20632;-93
2022/11/02 01:59:55;;;;;;;15.50;3.87;;;14.90;81.30;;;;;;4980860;28;20909;-92
2022/11/02 02:02:27;;;;;;;13.50;4.83;;;14.90;81.30;;;;;;4976918;28;20285;-94
2022/11/02 02:05:04;;;;;;;14.83;3.67;;;14.90;81.20;;;;;;4977357;28;20226;-94
2022/11/02 02:07:41;;;;;;;14.90;3.97;;;14.90;81.10;;;;;;4977954;28;20738;-91
2022/11/02 02:10:09;;;;;;;10.67;3.10;;;14.90;80.70;;;;;;4976079;28;20233;-92
2022/11/02 02:12:39;;;;;;;18.50;4.67;;;14.90;80.70;;;;;;4976678;28;20229;-91
2022/11/02 02:15:12;;;;;;;15.13;3.47;;;14.90;81.00;;;;;;4977115;28;20223;-93
2022/11/02 02:17:53;;;;;;;16.57;4.10;;;14.90;81.40;;;;;;4976889;28;20231;-92
2022/11/02 02:20:42;;;;;;;13.23;3.77;;;15.00;81.40;;;;;;4975435;28;20237;-92
2022/11/02 02:23:35;;;;;;;15.80;4.17;;;15.00;81.70;;;;;;4977245;28;20195;-92
2022/11/02 02:26:32;;;;;;;13.07;3.87;;;15.00;81.40;;;;;;4976528;28;20203;-92
2022/11/02 02:29:18;;;;;;;13.27;3.97;;;15.00;81.30;;;;;;4973598;28;20306;-93
2022/11/02 02:31:55;;;;;;;15.70;3.73;;;14.90;80.80;;;;;;4973816;28;20214;-92
2022/11/02 02:34:28;;;;;;;18.57;4.90;;;15.00;80.80;;;;;;4958003;28;20214;-91
2022/11/02 02:37:03;;;;;;;16.10;3.60;;;15.00;80.80;;;;;;4983213;28;20213;-93
2022/11/02 02:39:41;;;;;;;18.27;4.37;;;15.00;81.10;;;;;;4974050;28;20192;-94
2022/11/02 02:42:18;;;;;;;17.43;3.57;;;14.90;81.20;;;;;;4980228;28;20278;-90
2022/11/02 02:45:03;;;;;;;16.67;4.03;;;14.90;81.30;;;;;;4976378;28;20224;-91
2022/11/02 02:47:38;;;;;;;15.10;3.87;;;14.90;81.40;;;;;;4976227;28;20203;-92
2022/11/02 02:50:19;;;;;;;9.17;2.77;;;14.90;81.20;;;;;;4979692;28;20261;-93
2022/11/02 02:52:53;;;;;;;13.30;3.37;;;14.90;81.80;;;;;;4977236;28;20212;-91
2022/11/02 02:55:30;;;;;;;22.47;6.10;;;14.90;81.70;;;;;;4978055;28;20212;-93
2022/11/02 02:58:06;;;;;;;16.13;4.10;;;14.90;81.80;;;;;;4978560;28;20222;-90
2022/11/02 03:00:49;;;;;;;16.97;4.63;;;14.90;81.70;;;;;;4969744;28;20217;-92
2022/11/02 03:03:37;;;;;;;13.53;4.23;;;14.90;82.30;;;;;;4978203;28;20607;-92
2022/11/02 03:06:16;;;;;;;11.37;3.70;;;14.90;82.10;;;;;;4979100;28;20213;-92
2022/11/02 03:08:54;;;;;;;17.93;4.67;;;14.90;82.10;;;;;;4967626;28;20660;-90
2022/11/02 03:11:23;;;;;;;17.77;4.47;;;14.90;82.20;;;;;;4965147;28;20200;-93
2022/11/02 03:14:17;;;;;;;15.43;3.47;;;14.90;82.00;;;;;;4972170;28;20853;-92
2022/11/02 03:17:11;;;;;;;13.00;3.60;;;14.80;82.20;;;;;;4978902;28;20237;-92
2022/11/02 03:19:50;;;;;;;12.90;3.63;;;14.80;82.20;;;;;;4966007;28;20258;-92
2022/11/02 03:22:31;;;;;;;18.73;4.50;;;14.80;82.20;;;;;;4977738;28;20238;-91
2022/11/02 03:25:10;;;;;;;13.83;4.50;;;14.80;82.10;;;;;;4978479;28;20244;-91
2022/11/02 03:27:48;;;;;;;15.70;3.53;;;14.80;81.60;;;;;;4966322;28;20265;-92
2022/11/02 03:30:19;;;;;;;14.90;4.03;;;14.80;81.50;;;;;;4981347;28;20222;-92
2022/11/02 03:32:54;;;;;;;17.07;5.10;;;14.80;81.20;;;;;;4980665;28;20234;-91
2022/11/02 03:35:33;;;;;;;15.20;3.97;;;14.70;81.30;;;;;;4981289;28;20297;-92
2022/11/02 03:38:08;;;;;;;15.10;4.13;;;14.70;81.20;;;;;;4979901;28;20205;-90
2022/11/02 03:40:50;;;;;;;10.57;3.53;;;14.70;81.00;;;;;;4978365;28;20249;-90
2022/11/02 03:43:24;;;;;;;12.90;2.90;;;14.70;80.80;;;;;;4979360;28;20219;-92
2022/11/02 03:45:54;;;;;;;14.60;3.53;;;14.70;80.60;;;;;;4975953;28;20225;-91
2022/11/02 03:48:29;;;;;;;16.60;3.87;;;14.70;80.60;;;;;;4963996;28;20207;-92
2022/11/02 03:51:02;;;;;;;11.93;3.63;;;14.70;80.60;;;;;;4975975;28;20241;-91
2022/11/02 03:53:39;;;;;;;14.40;3.73;;;14.70;80.50;;;;;;4969265;28;20278;-92
2022/11/02 03:56:12;;;;;;;20.77;5.40;;;14.70;80.40;;;;;;4979035;28;20560;-92
2022/11/02 03:58:39;;;;;;;14.63;3.57;;;14.60;80.30;;;;;;4981388;28;20217;-92
2022/11/02 04:01:08;;;;;;;18.60;3.87;;;14.60;80.00;;;;;;4978150;28;20206;-91
2022/11/02 04:03:48;;;;;;;13.17;3.67;;;14.70;80.20;;;;;;4980942;28;20224;-91
2022/11/02 04:06:16;;;;;;;15.90;3.63;;;14.60;80.30;;;;;;4982739;28;20233;-92
2022/11/02 04:08:49;;;;;;;17.40;4.37;;;14.60;79.80;;;;;;4979443;28;20233;-92
2022/11/02 04:19:26;;;;;;;17.07;4.27;;;14.60;79.80;;;;;;4978854;28;20192;-92
2022/11/02 04:19:44;;;;;;;13.33;3.53;;;14.60;79.80;;;;;;4974455;28;20853;-92
2022/11/02 04:27:39;;;;;;;12.27;2.90;;;14.50;79.20;;;;;;4961372;28;20214;-92
2022/11/02 04:30:10;;;;;;;13.67;3.30;;;14.50;79.20;;;;;;4970989;28;20262;-92
2022/11/02 04:35:27;;;;;;;13.57;3.10;;;14.40;79.00;;;;;;4980789;28;20213;-91
2022/11/02 04:40:42;;;;;;;14.70;3.53;;;14.40;78.80;;;;;;4981519;28;20322;-91
2022/11/02 04:43:16;;;;;;;13.17;3.53;;;14.40;78.70;;;;;;4984711;28;20221;-90
2022/11/02 04:45:49;;;;;;;12.47;3.60;;;14.40;78.40;;;;;;4985394;28;20323;-91
2022/11/02 04:48:23;;;;;;;11.03;2.90;;;14.40;78.40;;;;;;4974440;28;20650;-92
2022/11/02 04:50:57;;;;;;;9.50;2.53;;;14.40;78.30;;;;;;4980375;28;20285;-92
2022/11/02 04:53:31;;;;;;;16.33;4.33;;;14.30;78.30;;;;;;4978022;28;20228;-92
2022/11/02 04:56:00;;;;;;;15.37;3.80;;;14.30;78.20;;;;;;4975839;28;20210;-93
2022/11/02 04:58:31;;;;;;;16.53;3.90;;;14.30;78.20;;;;;;4979292;28;20226;-93
2022/11/02 05:01:04;;;;;;;13.50;2.90;;;14.30;78.10;;;;;;4975797;28;20271;-92
2022/11/02 05:03:31;;;;;;;13.73;3.50;;;14.20;78.00;;;;;;4978879;28;20207;-92
2022/11/02 05:06:02;;;;;;;10.57;3.00;;;14.20;77.90;;;;;;4978186;28;20253;-91
2022/11/02 05:08:29;;;;;;;18.90;4.43;;;14.20;78.00;;;;;;4978554;28;20285;-92
2022/11/02 05:10:58;;;;;;;10.10;3.00;;;14.20;77.90;;;;;;4968094;28;20274;-91
2022/11/02 05:13:29;;;;;;;16.00;4.70;;;14.20;78.00;;;;;;4977344;28;20711;-91
2022/11/02 05:15:59;;;;;;;12.50;3.27;;;14.10;78.00;;;;;;4977603;28;20217;-91
2022/11/02 05:18:31;;;;;;;12.97;3.97;;;14.20;78.10;;;;;;4976976;28;20207;-91
2022/11/02 05:21:04;;;;;;;15.10;3.33;;;14.10;78.00;;;;;;4978022;28;20220;-92
2022/11/02 05:23:33;;;;;;;11.97;3.03;;;14.10;78.10;;;;;;4971516;28;20605;-92
2022/11/02 05:26:03;;;;;;;13.53;3.97;;;14.10;77.90;;;;;;4977897;28;20214;-91
2022/11/02 05:28:33;;;;;;;13.67;3.93;;;14.10;78.00;;;;;;4976729;28;20297;-93
2022/11/02 05:31:03;;;;;;;14.77;3.57;;;14.00;77.80;;;;;;4976873;28;20225;-91
2022/11/02 05:33:34;;;;;;;14.00;3.43;;;14.00;77.80;;;;;;4978663;28;20215;-92
2022/11/02 05:36:08;;;;;;;14.50;4.07;;;14.00;77.80;;;;;;4977771;28;20275;-92
2022/11/02 05:38:38;;;;;;;13.63;3.63;;;14.00;77.80;;;;;;4977244;28;20230;-92
2022/11/02 05:41:12;;;;;;;16.10;4.13;;;14.00;77.70;;;;;;4975707;28;20276;-91
2022/11/02 05:43:40;;;;;;;13.03;3.53;;;14.00;77.80;;;;;;4976070;28;21272;-91
2022/11/02 05:46:13;;;;;;;16.93;4.40;;;13.90;78.00;;;;;;4977283;28;20225;-92
2022/11/02 05:48:44;;;;;;;15.43;3.43;;;13.90;77.90;;;;;;4976939;28;20243;-92
2022/11/02 05:51:25;;;;;;;18.03;5.13;;;13.90;78.00;;;;;;4962441;28;20236;-92
2022/11/02 05:53:53;;;;;;;11.03;3.10;;;13.90;78.10;;;;;;4978452;28;20212;-92
2022/11/02 05:56:27;;;;;;;9.87;3.10;;;13.80;77.80;;;;;;4980971;28;20207;-92
2022/11/02 05:58:56;;;;;;;15.40;3.73;;;13.80;78.00;;;;;;4977564;28;20202;-92
2022/11/02 06:01:26;;;;;;;15.20;3.73;;;13.80;78.10;;;;;;4971117;28;20300;-92
2022/11/02 06:03:55;;;;;;;11.07;3.03;;;13.80;78.20;;;;;;4980587;28;20242;-91
2022/11/02 06:06:29;;;;;;;26.10;4.20;;;13.70;78.20;;;;;;4977443;28;20209;-93
2022/11/02 06:08:58;;;;;;;16.10;3.40;;;13.70;79.10;;;;;;4978516;28;20209;-92
2022/11/02 06:11:27;;;;;;;16.80;4.27;;;13.70;78.40;;;;;;4977633;28;20730;-92
2022/11/02 06:13:54;;;;;;;9.97;3.30;;;13.70;78.30;;;;;;4971996;28;20244;-92
2022/11/02 06:16:22;;;;;;;18.13;4.40;;;13.70;78.40;;;;;;4976847;28;20209;-93
2022/11/02 06:18:54;;;;;;;11.17;3.30;;;13.60;78.30;;;;;;4976093;28;20257;-92
2022/11/02 06:21:34;;;;;;;12.07;3.50;;;13.60;78.40;;;;;;4981927;28;20208;-93
2022/11/02 06:24:04;;;;;;;14.43;3.47;;;13.60;78.20;;;;;;4972392;28;20220;-92
2022/11/02 06:26:31;;;;;;;11.47;3.43;;;13.60;78.20;;;;;;4977024;28;20508;-92
2022/11/02 06:29:03;;;;;;;11.87;3.47;;;13.50;78.00;;;;;;4974474;28;20248;-92
2022/11/02 06:31:30;;;;;;;17.30;4.10;;;13.60;78.00;;;;;;4975404;28;20343;-92
2022/11/02 06:34:01;;;;;;;18.97;4.53;;;13.50;77.90;;;;;;4971612;28;20222;-92
2022/11/02 06:36:29;;;;;;;18.70;5.30;;;13.50;77.90;;;;;;4972297;28;20198;-92
2022/11/02 06:39:05;;;;;;;15.43;4.40;;;13.50;77.90;;;;;;4974098;28;20202;-93
2022/11/02 06:41:33;;;;;;;14.83;4.13;;;13.50;77.90;;;;;;4976477;28;20222;-93
2022/11/02 06:44:04;;;;;;;18.53;4.27;;;13.40;77.60;;;;;;4967046;28;20199;-93
2022/11/02 06:46:31;;;;;;;13.63;4.17;;;13.40;78.30;;;;;;4972663;28;20197;-92
2022/11/02 06:49:02;;;;;;;19.60;4.43;;;13.40;77.60;;;;;;4978885;28;20214;-93
2022/11/02 06:51:31;;;;;;;13.10;3.70;;;13.40;77.70;;;;;;4977175;28;20233;-92
2022/11/02 06:54:05;;;;;;;14.30;4.10;;;13.30;77.60;;;;;;4976484;28;20214;-92
2022/11/02 06:56:34;;;;;;;11.40;3.23;;;13.30;77.70;;;;;;4977880;28;20617;-93
2022/11/02 06:59:01;;;;;;;20.30;6.00;;;13.30;77.70;;;;;;4977850;28;20677;-93
2022/11/02 07:01:30;;;;;;;18.97;4.10;;;13.30;77.80;;;;;;4978888;28;20209;-92
2022/11/02 07:03:59;;;;;;;9.13;3.33;;;13.30;77.80;;;;;;4978530;28;20206;-92
2022/11/02 07:06:27;;;;;;;11.50;3.47;;;13.20;77.90;;;;;;4980349;28;20208;-92
2022/11/02 07:08:58;;;;;;;11.63;3.40;;;13.20;77.80;;;;;;4982209;28;20232;-92
2022/11/02 07:11:27;;;;;;;15.67;4.77;;;13.20;78.30;;;;;;4980741;28;20236;-92
2022/11/02 07:14:01;;;;;;;13.63;3.50;;;13.20;78.30;;;;;;4978674;28;20209;-92
2022/11/02 07:16:28;;;;;;;13.40;3.80;;;13.10;78.50;;;;;;4977477;28;20228;-93
2022/11/02 07:18:57;;;;;;;17.67;4.33;;;13.10;78.40;;;;;;4976821;28;20204;-92
2022/11/02 07:21:24;;;;;;;15.10;3.80;;;13.10;78.60;;;;;;4977929;28;20212;-90
2022/11/02 07:23:52;;;;;;;16.90;4.03;;;13.10;78.90;;;;;;4978698;28;20264;-92
2022/11/02 07:26:22;;;;;;;14.13;4.10;;;13.10;79.20;;;;;;4978861;28;20209;-93
2022/11/02 07:28:54;;;;;;;12.57;3.03;;;13.00;79.30;;;;;;4967637;28;20212;-92
2022/11/02 07:31:23;;;;;;;15.53;4.43;;;13.00;79.70;;;;;;4976902;28;20220;-92
2022/11/02 07:33:51;;;;;;;13.07;3.87;;;13.00;79.90;;;;;;4978079;28;20205;-92
2022/11/02 07:36:18;;;;;;;9.47;2.93;;;13.00;80.30;;;;;;4979635;28;20614;-91
2022/11/02 07:38:49;;;;;;;14.87;3.87;;;13.10;80.30;;;;;;4978812;28;20253;-92
2022/11/02 07:41:16;;;;;;;15.43;4.23;;;13.00;80.20;;;;;;4981047;28;20242;-91
2022/11/02 07:43:55;;;;;;;12.00;3.80;;;13.00;80.30;;;;;;4986025;28;20198;-93
2022/11/02 07:46:26;;;;;;;15.83;4.47;;;13.00;80.80;;;;;;4976882;28;20688;-93
2022/11/02 07:48:54;;;;;;;17.63;4.47;;;13.10;81.10;;;;;;4972918;28;20945;-93
2022/11/02 07:51:21;;;;;;;20.33;5.20;;;13.00;81.00;;;;;;4971449;28;20760;-91
2022/11/02 07:53:51;;;;;;;17.93;4.57;;;13.00;81.20;;;;;;4971476;28;20211;-91
2022/11/02 07:56:19;;;;;;;14.63;3.40;;;13.00;81.30;;;;;;4967455;28;20206;-92
2022/11/02 07:58:46;;;;;;;13.83;4.10;;;13.00;81.70;;;;;;4963275;28;20583;-92
2022/11/02 08:01:14;;;;;;;17.93;5.23;;;13.00;81.70;;;;;;4971836;28;20206;-92
2022/11/02 08:03:42;;;;;;;20.10;4.83;;;13.10;82.30;;;;;;4973400;28;20664;-93
2022/11/02 08:06:10;;;;;;;15.30;4.43;;;13.10;82.50;;;;;;4972648;28;20958;-91
2022/11/02 08:08:37;;;;;;;21.37;4.97;;;13.10;83.00;;;;;;4974349;28;20659;-92
2022/11/02 08:11:07;;;;;;;22.57;6.10;;;13.10;83.20;;;;;;4972026;28;20997;-93
2022/11/02 08:13:36;;;;;;;13.67;4.57;;;13.10;84.10;;;;;;4970904;28;20256;-91
2022/11/02 08:16:04;;;;;;;22.63;4.83;;;13.10;84.60;;;;;;4972252;28;20271;-93
2022/11/02 08:18:32;;;;;;;25.07;6.53;;;13.20;84.60;;;;;;4969753;28;20578;-91
2022/11/02 08:21:03;;;;;;;15.17;4.63;;;13.20;85.10;;;;;;4971769;28;20288;-95
2022/11/02 08:23:30;;;;;;;20.57;4.27;;;13.20;85.80;;;;;;4973646;28;20199;-92
2022/11/02 08:25:59;;;;;;;18.67;5.17;;;13.30;85.40;;;;;;4974605;28;20298;-92
2022/11/02 08:28:31;;;;;;;23.23;5.30;;;13.30;86.20;;;;;;4988711;28;20217;-93
2022/11/02 08:31:01;;;;;;;17.20;3.83;;;13.30;86.60;;;;;;4980792;28;20297;-91
2022/11/02 08:33:34;;;;;;;16.60;4.70;;;13.40;87.10;;;;;;4977701;28;20236;-92
2022/11/02 08:36:04;;;;;;;14.37;3.80;;;13.40;87.50;;;;;;4980021;28;20300;-94
2022/11/02 08:38:32;;;;;;;19.93;4.83;;;13.50;87.50;;;;;;4975357;28;20244;-92
2022/11/02 08:40:59;;;;;;;18.03;4.90;;;13.50;87.00;;;;;;4977357;28;20221;-92
2022/11/02 08:43:27;;;;;;;18.30;5.57;;;13.60;87.20;;;;;;4979084;28;20257;-92
2022/11/02 08:45:58;;;;;;;18.30;4.50;;;13.70;87.60;;;;;;4978607;28;20210;-92
2022/11/02 08:48:25;;;;;;;19.93;4.67;;;13.70;88.00;;;;;;4969422;28;20337;-92
2022/11/02 08:50:53;;;;;;;18.53;4.13;;;13.70;87.60;;;;;;4980050;28;20257;-93
2022/11/02 08:53:22;;;;;;;17.27;5.30;;;13.80;87.30;;;;;;4981475;28;20213;-92
2022/11/02 08:55:52;;;;;;;15.87;4.40;;;13.90;87.90;;;;;;4979031;28;20240;-94
2022/11/02 08:58:19;;;;;;;14.33;3.53;;;13.90;87.70;;;;;;4985926;28;20229;-92
2022/11/02 09:00:46;;;;;;;24.97;6.23;;;14.00;87.50;;;;;;4978618;28;20197;-92
2022/11/02 09:03:23;;;;;;;20.17;5.20;;;14.10;87.50;;;;;;4982886;28;20207;-92
2022/11/02 09:05:50;;;;;;;20.13;5.67;;;14.10;87.80;;;;;;4979119;28;20205;-95
2022/11/02 09:08:22;;;;;;;14.67;4.77;;;14.20;87.70;;;;;;4979930;28;20261;-95
2022/11/02 09:10:50;;;;;;;15.40;4.83;;;14.30;88.30;;;;;;4974271;28;20234;-94
2022/11/02 09:13:23;;;;;;;16.83;4.90;;;14.40;88.20;;;;;;4982163;28;20297;-94
2022/11/02 09:16:01;;;;;;;16.63;3.77;;;14.40;88.50;;;;;;4980405;28;20207;-93
2022/11/02 09:18:30;;;;;;;19.03;4.90;;;14.60;89.10;;;;;;4982629;28;20244;-94
2022/11/02 09:21:00;;;;;;;12.03;4.27;;;14.70;88.30;;;;;;4973271;28;20207;-93
2022/11/02 09:23:33;;;;;;;16.57;4.23;;;14.80;88.40;;;;;;4990515;28;20585;-91
2022/11/02 09:26:02;;;;;;;15.27;4.13;;;15.00;88.40;;;;;;4992921;28;20261;-92
2022/11/02 09:28:32;;;;;;;17.80;5.47;;;15.10;88.00;;;;;;4987495;28;20541;-92
2022/11/02 09:31:03;;;;;;;13.27;4.00;;;15.30;88.10;;;;;;4984779;28;20271;-92
2022/11/02 09:33:33;;;;;;;14.90;4.07;;;15.50;87.60;;;;;;4975717;28;20258;-93
2022/11/02 09:36:04;;;;;;;11.00;3.33;;;15.60;87.20;;;;;;4973536;28;20268;-93
2022/11/02 09:38:33;;;;;;;19.33;4.40;;;15.80;86.70;;;;;;4970484;28;20661;-92
2022/11/02 09:41:12;;;;;;;19.27;4.37;;;15.90;85.80;;;;;;4962422;28;20267;-92
2022/11/02 09:43:52;;;;;;;19.73;5.23;;;16.10;84.90;;;;;;4968396;28;20269;-91
2022/11/02 09:46:25;;;;;;;13.57;3.50;;;16.30;84.50;;;;;;4952961;29;20213;-91
2022/11/02 09:48:57;;;;;;;14.53;4.70;;;16.50;84.30;;;;;;4969305;28;20210;-91
2022/11/02 09:51:33;;;;;;;20.30;6.10;;;16.60;83.10;;;;;;4962349;28;20341;-92
2022/11/02 09:54:08;;;;;;;19.40;4.70;;;16.80;82.30;;;;;;4970451;28;20206;-91
2022/11/02 09:56:36;;;;;;;18.17;5.23;;;17.00;81.90;;;;;;4971731;28;20241;-93
2022/11/02 09:59:08;;;;;;;17.33;5.10;;;17.10;81.10;;;;;;4962146;28;20648;-91
2022/11/02 10:01:49;;;;;;;18.87;5.60;;;17.30;80.00;;;;;;4969251;28;20274;-91
2022/11/02 10:04:43;;;;;;;13.87;4.67;;;17.30;78.50;;;;;;4969467;28;20291;-91
2022/11/02 10:07:20;;;;;;;15.67;4.57;;;17.50;78.70;;;;;;4969665;28;20216;-92
2022/11/02 10:09:55;;;;;;;15.07;4.70;;;17.50;77.20;;;;;;4967301;28;20260;-92
2022/11/02 10:12:28;;;;;;;23.30;6.07;;;17.60;76.30;;;;;;4951483;28;20293;-93
2022/11/02 10:15:03;;;;;;;20.87;4.97;;;17.60;75.70;;;;;;4955422;28;20222;-93
2022/11/02 10:17:36;;;;;;;18.63;4.43;;;17.60;74.90;;;;;;4972204;28;20236;-91
2022/11/02 10:20:07;;;;;;;21.20;4.90;;;17.60;74.40;;;;;;4974562;28;20217;-92
2022/11/02 10:22:40;;;;;;;12.10;4.20;;;17.50;74.40;;;;;;4984439;28;20215;-91
2022/11/02 10:25:14;;;;;;;19.03;4.33;;;17.50;74.30;;;;;;4973726;28;20206;-93
2022/11/02 10:27:47;;;;;;;21.10;5.70;;;17.40;74.30;;;;;;4970061;28;20209;-91
2022/11/02 10:30:17;;;;;;;17.70;5.07;;;17.40;75.20;;;;;;4964598;28;20209;-92
2022/11/02 10:32:47;;;;;;;18.47;5.10;;;17.40;76.10;;;;;;4950830;28;20550;-92
2022/11/02 10:35:18;;;;;;;15.53;4.90;;;17.30;76.80;;;;;;4954485;28;20203;-91
2022/11/02 10:37:57;;;;;;;19.50;5.10;;;17.40;76.10;;;;;;4970024;28;20207;-92
2022/11/02 10:40:46;;;;;;;19.97;5.40;;;17.40;76.70;;;;;;4969946;28;20650;-91
2022/11/02 10:43:26;;;;;;;20.10;4.70;;;17.50;75.90;;;;;;4969622;28;20229;-91
2022/11/02 10:46:15;;;;;;;19.80;5.97;;;17.50;75.70;;;;;;4967295;28;20210;-92
2022/11/02 10:48:51;;;;;;;21.07;5.57;;;17.60;74.40;;;;;;4972031;28;20253;-94
2022/11/02 10:51:20;;;;;;;19.40;4.70;;;17.70;74.50;;;;;;4970656;28;20262;-95
2022/11/02 10:53:51;;;;;;;10.00;3.63;;;17.80;74.60;;;;;;4969642;28;20207;-93
2022/11/02 10:56:21;;;;;;;25.60;6.77;;;17.80;74.70;;;;;;4969140;28;20238;-91
2022/11/02 10:59:00;;;;;;;16.40;4.43;;;17.90;74.10;;;;;;4968532;28;20209;-92
2022/11/02 11:01:29;;;;;;;16.30;5.23;;;18.00;74.30;;;;;;4967862;28;20209;-91
2022/11/02 11:03:58;;;;;;;21.63;5.67;;;18.10;74.70;;;;;;4967328;28;20210;-91
2022/11/02 11:06:30;;;;;;;14.67;4.53;;;18.20;74.00;;;;;;4967732;28;20327;-92
2022/11/02 11:09:06;;;;;;;21.27;5.93;;;18.20;73.90;;;;;;4967748;28;20206;-92
2022/11/02 11:11:39;;;;;;;16.67;3.90;;;18.40;74.30;;;;;;4955231;28;20221;-95
2022/11/02 11:14:07;;;;;;;15.80;4.47;;;18.50;73.10;;;;;;4967651;28;20281;-92
2022/11/02 11:16:38;;;;;;;22.67;5.07;;;18.60;73.60;;;;;;4962936;28;20302;-90
2022/11/02 11:19:16;;;;;;;17.27;4.73;;;18.70;72.80;;;;;;4953635;28;20226;-93
2022/11/02 11:21:44;;;;;;;19.40;4.67;;;18.80;72.10;;;;;;4967133;28;20274;-91
2022/11/02 11:24:22;;;;;;;14.93;4.03;;;18.90;71.70;;;;;;4968253;28;20241;-93
2022/11/02 11:27:17;;;;;;;18.47;5.20;;;18.90;70.40;;;;;;4967955;28;20274;-91
2022/11/02 11:29:51;;;;;;;18.17;4.73;;;19.10;69.80;;;;;;4959907;28;20939;-91
2022/11/02 11:32:23;;;;;;;16.70;4.77;;;19.20;69.30;;;;;;4949298;29;20250;-91
2022/11/02 11:34:57;;;;;;;12.57;3.90;;;19.30;69.50;;;;;;4961041;28;20281;-93
2022/11/02 11:37:25;;;;;;;13.43;3.50;;;19.30;69.00;;;;;;4970289;28;20217;-90
2022/11/02 11:39:57;;;;;;;17.93;4.37;;;19.50;69.30;;;;;;4969081;28;20202;-91
2022/11/02 11:42:29;;;;;;;13.73;3.73;;;19.50;68.80;;;;;;4967388;28;20214;-90
2022/11/02 11:45:03;;;;;;;14.70;4.27;;;19.60;67.60;;;;;;4963085;28;20225;-90
2022/11/02 11:47:34;;;;;;;14.57;3.83;;;19.80;67.30;;;;;;4965268;28;20298;-90
2022/11/02 11:50:04;;;;;;;14.03;4.73;;;19.80;67.40;;;;;;4968721;28;20203;-90
2022/11/02 11:52:33;;;;;;;21.77;6.97;;;19.90;67.20;;;;;;4968734;28;20313;-90
2022/11/02 11:55:01;;;;;;;14.70;4.10;;;20.00;67.40;;;;;;4967736;28;20824;-91
2022/11/02 11:57:33;;;;;;;14.47;4.00;;;20.00;67.00;;;;;;4990639;28;20183;-92
2022/11/02 12:00:03;;;;;;;11.13;3.10;;;20.10;66.90;;;;;;4976169;28;20213;-90
2022/11/02 12:02:32;;;;;;;15.77;3.97;;;20.20;67.40;;;;;;4972354;28;20209;-89
2022/11/02 12:05:02;;;;;;;14.40;3.93;;;20.30;67.10;;;;;;4973765;28;20564;-92
2022/11/02 12:08:01;;;;;;;10.93;4.20;;;20.40;66.70;;;;;;4951974;28;20716;-91
2022/11/02 12:10:47;;;;;;;21.03;5.33;;;20.50;65.20;;;;;;4968674;28;20329;-90
2022/11/02 12:13:31;;;;;;;16.33;5.23;;;20.60;65.10;;;;;;4969276;28;20250;-89
2022/11/02 12:16:51;;;;;;;17.57;4.53;;;20.60;63.30;;;;;;4967805;28;20219;-90
2022/11/02 12:19:29;;;;;;;13.90;4.70;;;20.50;63.10;;;;;;4965288;28;20203;-90
2022/11/02 12:22:07;;;;;;;22.33;5.87;;;20.50;63.60;;;;;;4965842;28;20207;-90
2022/11/02 12:24:56;;;;;;;17.33;5.27;;;20.40;63.30;;;;;;4962833;28;20318;-89
2022/11/02 12:27:40;;;;;;;21.50;5.67;;;20.40;63.70;;;;;;4967616;28;20227;-90
2022/11/02 12:30:19;;;;;;;17.30;5.57;;;20.40;64.20;;;;;;4968603;28;20203;-90
2022/11/02 12:33:06;;;;;;;12.83;4.20;;;20.50;63.20;;;;;;4971163;28;20238;-92
2022/11/02 12:36:13;;;;;;;10.03;3.27;;;20.50;61.40;;;;;;4969054;28;20206;-91
2022/11/02 12:39:10;;;;;;;18.10;4.60;;;20.50;61.10;;;;;;4945005;29;20278;-92
2022/11/02 12:41:50;;;;;;;12.93;3.77;;;20.60;60.70;;;;;;4930332;29;20306;-91
2022/11/02 12:44:45;;;;;;;12.40;4.03;;;20.60;60.40;;;;;;4952163;28;20218;-91
2022/11/02 12:47:32;;;;;;;16.87;5.63;;;20.60;59.60;;;;;;4970196;28;20312;-91
2022/11/02 12:50:07;;;;;;;13.03;3.87;;;20.70;60.40;;;;;;4965743;28;20245;-88
2022/11/02 12:52:52;;;;;;;18.00;5.53;;;20.70;60.80;;;;;;4970984;28;20238;-89
2022/11/02 12:55:24;;;;;;;13.47;3.90;;;20.70;60.30;;;;;;4985404;28;20206;-90
2022/11/02 12:57:55;;;;;;;8.87;3.33;;;20.80;60.60;;;;;;4985191;28;20270;-89
2022/11/02 13:00:24;;;;;;;13.63;3.80;;;20.90;60.60;;;;;;4988191;28;20231;-89
2022/11/02 13:03:03;;;;;;;13.67;3.50;;;20.90;59.80;;;;;;4987570;28;20262;-91
2022/11/02 13:05:39;;;;;;;8.47;2.63;;;20.90;59.80;;;;;;4990860;28;20211;-88
2022/11/02 13:08:14;;;;;;;11.53;2.87;;;20.90;59.30;;;;;;4988825;28;20207;-89
2022/11/02 13:10:45;;;;;;;14.13;5.30;;;21.00;59.30;;;;;;4982082;28;20214;-90
2022/11/02 13:13:17;;;;;;;10.70;3.10;;;20.90;59.40;;;;;;4976094;28;20679;-91
2022/11/02 13:15:48;;;;;;;9.50;3.40;;;21.00;59.40;;;;;;4979386;28;20606;-90
2022/11/02 13:18:27;;;;;;;11.10;3.80;;;21.00;59.00;;;;;;4980009;28;20225;-90
2022/11/02 13:20:59;;;;;;;13.10;3.70;;;21.00;58.10;;;;;;4975308;28;20265;-88
2022/11/02 13:23:35;;;;;;;11.57;4.07;;;21.00;58.40;;;;;;4979165;28;20226;-92
2022/11/02 13:26:08;;;;;;;15.73;4.70;;;21.00;58.60;;;;;;4983002;28;20247;-89